Track Васильев Сергей

Time Latitude Longitude Accuracy (66% radius in meters) Altitude (meters) Speed (km/hour) Bearing (degrees) Battery (%) GPS flag
05:31:24 57.150613 39.348874 2.5 102.5 0 0 13 1 delete
05:30:54 57.150605 39.348859 2 99 0 0 13 1 delete
05:30:24 57.150605 39.348859 3 99 0 0 13 1 delete
05:29:54 57.150646 39.348855 4.5 101.59999847412 0 0 13 1 delete
05:29:24 57.150646 39.348855 5 101.59999847412 0 0 13 1 delete
05:18:53 57.150616 39.348818 1.5 105.80000305176 0 0 14 1 delete
05:18:43 57.150630 39.348767 2 106.90000152588 0.9899999499321 135.56579589844 14 1 delete
05:18:27 57.150663 39.348500 13.5 103.30000305176 1.6399999856949 97.294921875 14 1 delete
05:08:23 57.150541 39.348217 3 103.69999694824 0 0 16 1 delete
05:07:48 57.150477 39.348157 2 102.19999694824 0 0 16 1 delete
05:07:18 57.150477 39.348157 3 102.19999694824 0 0 16 1 delete
05:06:48 57.150477 39.348157 3 102.19999694824 0 0 16 1 delete
05:06:18 57.150477 39.348157 6 102.19999694824 0 0 16 1 delete
05:05:43 57.150419 39.348124 8.5 100.30000305176 0 0 16 1 delete
04:55:11 57.150522 39.348070 9.5 96.300003051758 0 0 16 1 delete
04:55:01 57.150484 39.348082 11.5 92.300003051758 0.38999998569489 195.46875 16 1 delete
04:54:51 57.150522 39.348239 16.5 105.5 0.52999997138977 336.28051757812 16 1 delete
04:54:46 57.150571 39.348048 19.5 111.90000152588 0.38999998569489 167.86010742188 16 1 delete
04:44:37 57.150777 39.347951 22.5 67.099998474121 0.19999998807907 265.29235839844 17 1 delete
04:44:22 57.150745 39.347838 20.5 95.099998474121 0.72999995946884 59.161376953125 17 1 delete
04:44:16 57.150433 39.347933 21 133.5 0.81999999284744 198.46252441406 17 1 delete
04:34:04 57.150650 39.348225 12 106.69999694824 0.72999995946884 10.83251953125 17 1 delete
04:33:49 57.150658 39.348268 17 97.199996948242 0 0 17 1 delete
04:33:43 57.150583 39.348065 12.5 106.59999847412 0.59999996423721 315.78552246094 17 1 delete
04:23:33 57.150797 39.348392 17 131.80000305176 1.039999961853 343.11401367188 18 1 delete
04:23:23 57.150720 39.348334 19.5 124.30000305176 0.25999999046326 66.011352539062 18 1 delete
04:23:18 57.150863 39.348269 23.5 150.69999694824 0 0 18 1 delete
04:23:12 57.150605 39.347938 23.5 95.900001525879 0.28999999165535 218.16650390625 18 1 delete
04:12:58 57.150435 39.348172 13.5 103.69999694824 0 0 18 1 delete
04:12:42 57.150506 39.348221 29 100.80000305176 0 0 18 1 delete
04:12:37 57.150581 39.348097 26 110.69999694824 0.52999997138977 329.47998046875 18 1 delete
04:02:26 57.150651 39.348380 9.5 97.400001525879 0 0 18 1 delete
04:02:11 57.150620 39.348405 15.5 109 0 0 18 1 delete
04:02:05 57.150495 39.347954 12.5 97.400001525879 0.25 41.742553710938 18 1 delete
03:51:58 57.150276 39.348419 14.5 77.599998474121 0 0 18 1 delete
03:51:53 57.150238 39.348458 15 67.300003051758 0 0 18 1 delete
03:51:38 57.150174 39.348385 20.5 49.900001525879 0.68000000715256 39.759521484375 18 1 delete
03:51:32 57.150428 39.348205 15 91.699996948242 0.81999999284744 189.90417480469 18 1 delete
03:41:22 57.150703 39.347978 10.5 148.5 0.41999998688698 337.67578125 19 1 delete
03:41:07 57.150640 39.348101 16 130.5 0 0 19 1 delete
03:41:01 57.150322 39.348372 24 52.900001525879 1.1399999856949 180.27465820312 19 1 delete
03:30:54 57.150632 39.348197 11.5 116.40000152588 0.41999998688698 335.4345703125 19 1 delete
03:30:44 57.150598 39.348207 9.5 114.80000305176 0.39999997615814 315.24719238281 19 1 delete
03:30:34 57.150737 39.348202 10.5 114.5 0.70999997854233 0.999755859375 19 1 delete
03:30:24 57.150648 39.348182 9 118.40000152588 0 0 19 1 delete
03:29:54 57.150622 39.348219 6.5 121.80000305176 0.25 346.13525390625 19 1 delete
03:29:19 57.150619 39.348188 9 121.19999694824 0 0 19 1 delete
03:28:49 57.150635 39.348224 8.5 116.30000305176 0.62999999523163 5.1910400390625 19 1 delete
03:28:19 57.150647 39.348195 15 117.90000152588 0.28999999165535 277.24548339844 19 1 delete
03:17:48 57.150580 39.348189 6 110.69999694824 0.089999996125698 205.16967773438 19 1 delete